createdAt,value
2017-09-01T00:01:39.434Z,3.20
2017-09-01T00:04:09.913Z,6.40
2017-09-01T00:06:41.621Z,3.80
2017-09-01T00:09:12.385Z,3.37
2017-09-01T00:11:43.435Z,3.50
2017-09-01T00:14:13.973Z,4.70
2017-09-01T00:16:45.220Z,7.60
2017-09-01T00:19:16.696Z,3.57
2017-09-01T00:21:47.717Z,4.87
2017-09-01T00:24:19.692Z,5.53
2017-09-01T00:26:50.895Z,6.07
2017-09-01T00:29:21.919Z,5.00
2017-09-01T00:31:53.221Z,3.50
2017-09-01T00:34:25.130Z,6.60
2017-09-01T00:36:56.251Z,4.63
2017-09-01T00:39:26.569Z,3.27
2017-09-01T00:41:56.975Z,5.33
2017-09-01T00:44:27.699Z,4.03
2017-09-01T00:47:05.728Z,3.03
2017-09-01T00:49:36.284Z,4.40
2017-09-01T00:52:06.919Z,3.20
2017-09-01T00:54:39.097Z,3.13
2017-09-01T00:57:10.592Z,3.70
2017-09-01T00:59:41.558Z,3.60
2017-09-01T01:02:12.475Z,3.47
2017-09-01T01:04:43.380Z,3.50
2017-09-01T01:07:16.462Z,4.60
2017-09-01T01:09:47.513Z,5.37
2017-09-01T01:12:18.275Z,7.10
2017-09-01T01:14:49.315Z,6.43
2017-09-01T01:17:19.790Z,3.30
2017-09-01T01:19:50.382Z,4.03
2017-09-01T01:22:21.269Z,5.03
2017-09-01T01:24:52.585Z,3.77
2017-09-01T01:27:23.625Z,4.77
2017-09-01T01:29:54.235Z,4.43
2017-09-01T01:32:25.422Z,5.47
2017-09-01T01:50:07.241Z,3.30
2017-09-01T01:52:38.387Z,3.10
2017-09-01T01:55:09.164Z,3.00
2017-09-01T01:57:40.395Z,4.47
2017-09-01T02:00:11.509Z,5.17
2017-09-01T02:02:42.627Z,4.60
2017-09-01T02:05:13.654Z,4.00
2017-09-01T02:07:45.119Z,4.13
2017-09-01T02:10:15.829Z,3.60
2017-09-01T02:12:46.776Z,4.70
2017-09-01T02:15:18.722Z,7.23
2017-09-01T02:17:49.889Z,5.03
2017-09-01T02:20:21.134Z,4.70
2017-09-01T02:22:52.584Z,5.60
2017-09-01T02:25:23.664Z,3.83
2017-09-01T02:27:54.667Z,8.03
2017-09-01T02:30:25.283Z,3.37
2017-09-01T02:32:57.101Z,3.40
2017-09-01T02:35:28.912Z,4.30
2017-09-01T02:38:00.828Z,7.07
2017-09-01T02:40:32.266Z,4.90
2017-09-01T02:43:03.797Z,6.60
2017-09-01T02:45:34.750Z,4.57
2017-09-01T02:48:06.260Z,4.57
2017-09-01T02:50:37.364Z,6.17
2017-09-01T02:53:08.405Z,4.47
2017-09-01T02:55:40.077Z,6.20
2017-09-01T02:58:11.379Z,3.40
2017-09-01T03:00:42.200Z,5.70
2017-09-01T03:03:13.442Z,5.93
2017-09-01T03:05:44.525Z,4.73
2017-09-01T03:08:16.079Z,4.70
2017-09-01T03:10:47.491Z,3.77
2017-09-01T03:13:18.518Z,3.13
2017-09-01T03:15:49.712Z,5.43
2017-09-01T03:18:21.153Z,4.83
2017-09-01T03:20:51.892Z,4.87
2017-09-01T03:23:22.829Z,8.43
2017-09-01T03:25:53.679Z,2.97
2017-09-01T03:28:25.182Z,6.63
2017-09-01T03:30:56.106Z,3.60
2017-09-01T03:33:27.256Z,5.77
2017-09-01T03:35:58.144Z,4.70
2017-09-01T03:38:29.241Z,3.10
2017-09-01T03:40:59.971Z,3.93
2017-09-01T03:43:31.202Z,3.53
2017-09-01T03:46:02.500Z,4.73
2017-09-01T03:48:33.879Z,6.00
2017-09-01T03:51:04.773Z,4.87
2017-09-01T03:53:35.859Z,4.27
2017-09-01T03:56:06.584Z,4.20
2017-09-01T03:58:38.053Z,4.83
2017-09-01T04:01:08.789Z,7.43
2017-09-01T04:03:41.023Z,5.10
2017-09-01T04:06:12.016Z,6.43
2017-09-01T04:08:43.344Z,3.90
2017-09-01T04:11:14.640Z,7.00
2017-09-01T04:13:46.457Z,4.10
2017-09-01T04:16:17.304Z,6.03
2017-09-01T04:18:49.052Z,7.13
2017-09-01T04:21:20.609Z,3.47
2017-09-01T04:23:51.744Z,4.57
2017-09-01T04:26:26.933Z,4.80
2017-09-01T04:29:01.857Z,8.27
2017-09-01T04:31:37.985Z,5.50
2017-09-01T04:34:09.982Z,8.37
2017-09-01T04:36:40.753Z,4.90
2017-09-01T04:39:12.133Z,3.40
2017-09-01T04:41:50.777Z,9.20
2017-09-01T04:44:22.090Z,4.70
2017-09-01T04:46:53.094Z,6.70
2017-09-01T04:49:29.486Z,8.20
2017-09-01T04:52:01.118Z,9.00
2017-09-01T04:54:31.877Z,7.10
2017-09-01T04:57:02.856Z,12.77
2017-09-01T04:59:34.006Z,9.07
2017-09-01T05:02:04.619Z,8.03
2017-09-01T05:04:36.195Z,5.00
2017-09-01T05:07:07.365Z,5.30
2017-09-01T05:09:38.383Z,4.87
2017-09-01T05:12:08.883Z,8.57
2017-09-01T05:14:39.719Z,7.93
2017-09-01T05:17:10.579Z,7.13
2017-09-01T05:19:41.866Z,8.60
2017-09-01T05:22:14.860Z,4.30
2017-09-01T05:24:50.883Z,7.97
2017-09-01T05:27:21.904Z,8.40
2017-09-01T05:29:55.656Z,5.60
2017-09-01T05:32:26.572Z,6.50
2017-09-01T05:34:57.176Z,13.00
2017-09-01T05:37:28.389Z,10.17
2017-09-01T05:39:59.510Z,11.73
2017-09-01T05:42:30.125Z,10.10
2017-09-01T05:45:00.790Z,8.27
2017-09-01T05:47:31.907Z,11.37
2017-09-01T05:50:03.018Z,15.80
2017-09-01T05:52:34.016Z,15.10
2017-09-01T05:55:05.077Z,16.87
2017-09-01T05:57:36.221Z,19.03
2017-09-01T06:00:07.562Z,18.10
2017-09-01T06:02:38.527Z,21.00
2017-09-01T06:05:10.635Z,19.03
2017-09-01T06:07:41.415Z,13.93
2017-09-01T06:10:12.071Z,14.37
2017-09-01T06:12:43.332Z,16.83
2017-09-01T06:15:15.337Z,22.23
2017-09-01T06:17:46.954Z,16.47
2017-09-01T06:20:18.047Z,19.70
2017-09-01T06:22:49.409Z,22.33
2017-09-01T06:25:20.451Z,14.90
2017-09-01T06:27:51.702Z,20.80
2017-09-01T06:30:23.683Z,19.63
2017-09-01T06:32:54.999Z,17.23
2017-09-01T06:35:26.381Z,20.50
2017-09-01T06:37:57.732Z,24.57
2017-09-01T06:40:29.484Z,21.07
2017-09-01T06:43:00.345Z,25.63
2017-09-01T06:45:31.415Z,25.07
2017-09-01T06:48:02.884Z,29.70
2017-09-01T06:50:34.877Z,30.03
2017-09-01T06:53:05.674Z,33.60
2017-09-01T06:55:36.504Z,31.33
2017-09-01T06:58:08.057Z,27.57
2017-09-01T07:00:38.691Z,30.40
2017-09-01T07:03:09.350Z,23.67
2017-09-01T07:05:40.265Z,24.37
2017-09-01T07:08:11.651Z,27.30
2017-09-01T07:10:44.130Z,28.33
2017-09-01T07:13:14.978Z,23.87
2017-09-01T07:15:45.666Z,27.70
2017-09-01T07:18:24.094Z,29.57
2017-09-01T07:20:55.803Z,26.10
2017-09-01T07:23:26.703Z,29.70
2017-09-01T07:25:57.178Z,26.20
2017-09-01T07:28:27.883Z,28.77
2017-09-01T07:30:58.576Z,32.33
2017-09-01T07:33:29.254Z,26.03
2017-09-01T07:36:05.469Z,27.27
2017-09-01T07:38:36.676Z,35.30
2017-09-01T07:41:07.285Z,24.17
2017-09-01T07:43:37.935Z,28.10
2017-09-01T07:46:08.534Z,24.77
2017-09-01T07:48:38.951Z,30.50
2017-09-01T07:51:11.409Z,31.33
2017-09-01T07:53:42.400Z,29.47
2017-09-01T07:56:13.206Z,25.90
2017-09-01T07:58:44.142Z,28.87
2017-09-01T08:01:14.853Z,30.70
2017-09-01T08:03:45.340Z,25.73
2017-09-01T08:06:16.757Z,22.77
2017-09-01T08:08:47.295Z,24.83
2017-09-01T08:11:17.845Z,24.33
2017-09-01T08:13:48.731Z,19.00
2017-09-01T08:16:21.379Z,23.13
2017-09-01T08:18:52.110Z,24.50
2017-09-01T08:21:22.774Z,20.83
2017-09-01T08:23:53.361Z,22.50
2017-09-01T08:26:24.121Z,22.43
2017-09-01T08:28:55.109Z,18.30
2017-09-01T08:31:25.583Z,22.43
2017-09-01T08:33:56.196Z,17.67
2017-09-01T08:36:26.716Z,16.80
2017-09-01T08:38:57.442Z,15.43
2017-09-01T08:41:28.030Z,23.50
2017-09-01T08:43:58.498Z,16.80
2017-09-01T08:46:29.997Z,22.90
2017-09-01T08:49:00.547Z,21.53
2017-09-01T08:51:31.866Z,20.03
2017-09-01T08:54:02.387Z,21.87
2017-09-01T08:56:33.037Z,17.33
2017-09-01T08:59:03.625Z,17.00
2017-09-01T09:01:34.536Z,20.03
2017-09-01T09:04:05.954Z,16.10
2017-09-01T09:06:36.543Z,14.60
2017-09-01T09:09:07.110Z,16.50
2017-09-01T09:11:37.601Z,17.17
2017-09-01T09:14:08.240Z,19.17
2017-09-01T09:16:39.136Z,19.13
2017-09-01T09:19:09.637Z,19.30
2017-09-01T09:21:40.502Z,14.10
2017-09-01T09:24:11.377Z,18.87
2017-09-01T09:26:42.346Z,19.70
2017-09-01T09:29:13.031Z,18.97
2017-09-01T09:31:43.924Z,22.57
2017-09-01T09:34:14.800Z,20.47
2017-09-01T09:36:46.155Z,15.73
2017-09-01T09:39:16.766Z,22.37
2017-09-01T09:41:47.635Z,30.03
2017-09-01T09:44:18.319Z,25.97
2017-09-01T09:46:48.826Z,27.77
2017-09-01T09:49:19.369Z,23.93
2017-09-01T09:51:50.022Z,21.83
2017-09-01T09:54:20.776Z,24.60
2017-09-01T09:56:51.366Z,28.07
2017-09-01T09:59:21.936Z,26.53
2017-09-01T10:01:52.568Z,31.30
2017-09-01T10:04:23.178Z,29.83
2017-09-01T10:06:53.681Z,26.13
2017-09-01T10:09:24.557Z,33.33
2017-09-01T10:11:55.084Z,29.30
2017-09-01T10:14:25.697Z,33.17
2017-09-01T10:16:56.355Z,26.20
2017-09-01T10:19:27.251Z,31.70
2017-09-01T10:21:57.698Z,26.77
2017-09-01T10:24:28.241Z,26.67
2017-09-01T10:26:58.865Z,23.07
2017-09-01T10:29:30.125Z,33.20
2017-09-01T10:32:00.731Z,26.93
2017-09-01T10:34:31.634Z,23.83
2017-09-01T10:37:02.165Z,22.27
2017-09-01T10:39:32.627Z,22.70
2017-09-01T10:42:03.314Z,24.27
2017-09-01T10:44:33.886Z,24.70
2017-09-01T10:47:04.493Z,19.40
2017-09-01T10:49:44.178Z,22.37
2017-09-01T10:54:27.211Z,25.00
2017-09-01T10:59:06.338Z,20.13
2017-09-01T11:01:36.987Z,14.47
2017-09-01T11:04:07.554Z,17.20
2017-09-01T11:06:38.719Z,18.90
2017-09-01T11:09:09.306Z,15.33
2017-09-01T11:11:40.075Z,14.43
2017-09-01T11:14:10.966Z,20.77
2017-09-01T11:16:41.538Z,16.33
2017-09-01T11:19:17.047Z,17.60
2017-09-01T11:23:58.538Z,18.13
2017-09-01T11:26:29.181Z,15.67
2017-09-01T11:29:01.912Z,27.97
2017-09-01T11:31:32.702Z,21.20
2017-09-01T11:34:03.281Z,20.10
2017-09-01T11:36:33.747Z,18.07
2017-09-01T11:39:05.794Z,18.40
2017-09-01T11:41:36.407Z,16.07
2017-09-01T11:44:08.102Z,20.00
2017-09-01T11:46:38.611Z,17.60
2017-09-01T11:49:09.547Z,22.73
2017-09-01T11:51:40.668Z,19.80
2017-09-01T11:54:12.334Z,18.73
2017-09-01T11:56:44.029Z,20.17
2017-09-01T11:59:15.119Z,23.07
2017-09-01T12:01:46.545Z,24.00
2017-09-01T12:04:18.251Z,19.23
2017-09-01T12:06:48.885Z,20.30
2017-09-01T12:09:19.782Z,21.10
2017-09-01T12:11:50.270Z,25.27
2017-09-01T12:14:22.661Z,19.47
2017-09-01T12:16:54.277Z,21.17
2017-09-01T12:19:26.445Z,20.00
2017-09-01T12:21:57.087Z,16.03
2017-09-01T12:24:27.559Z,16.73
2017-09-01T12:27:02.143Z,13.93
2017-09-01T12:29:36.968Z,23.20
2017-09-01T12:32:07.616Z,19.53
2017-09-01T12:34:38.542Z,18.77
2017-09-01T12:37:09.962Z,20.97
2017-09-01T12:39:41.309Z,23.37
2017-09-01T12:42:11.942Z,20.97
2017-09-01T12:44:42.787Z,20.50
2017-09-01T12:47:14.452Z,18.20
2017-09-01T12:49:46.350Z,20.50
2017-09-01T12:52:16.890Z,16.47
2017-09-01T12:54:47.568Z,21.20
2017-09-01T12:57:19.189Z,18.57
2017-09-01T12:59:50.169Z,23.20
2017-09-01T13:02:20.756Z,15.77
2017-09-01T13:04:51.629Z,19.70
2017-09-01T13:07:28.073Z,23.53
2017-09-01T13:10:04.694Z,22.87
2017-09-01T13:12:41.587Z,24.87
2017-09-01T13:15:12.983Z,25.43
2017-09-01T13:17:50.390Z,21.50
2017-09-01T13:20:30.845Z,20.63
2017-09-01T13:23:03.359Z,30.73
2017-09-01T13:25:34.279Z,24.93
2017-09-01T13:28:05.222Z,23.23
2017-09-01T13:30:38.001Z,21.97
2017-09-01T13:33:08.978Z,27.83
2017-09-01T13:35:39.861Z,25.50
2017-09-01T13:38:11.554Z,19.27
2017-09-01T13:40:43.700Z,27.37
2017-09-01T13:43:17.374Z,21.07
2017-09-01T13:45:48.091Z,28.20
2017-09-01T13:48:19.048Z,31.33
2017-09-01T13:50:50.945Z,23.20
2017-09-01T13:53:22.006Z,22.63
2017-09-01T13:55:52.792Z,21.80
2017-09-01T13:58:23.658Z,21.03
2017-09-01T14:00:54.474Z,20.23
2017-09-01T14:03:25.833Z,25.00
2017-09-01T14:05:56.534Z,26.90
2017-09-01T14:08:27.743Z,24.40
2017-09-01T14:10:58.674Z,24.67
2017-09-01T14:13:29.283Z,27.40
2017-09-01T14:16:00.405Z,24.40
2017-09-01T14:18:31.032Z,23.00
2017-09-01T14:21:01.878Z,23.23
2017-09-01T14:23:32.524Z,20.43
2017-09-01T14:26:03.356Z,25.23
2017-09-01T14:28:33.932Z,22.53
2017-09-01T14:31:04.819Z,20.20
2017-09-01T14:33:37.832Z,22.67
2017-09-01T14:36:08.454Z,19.17
2017-09-01T14:38:39.319Z,24.13
2017-09-01T14:41:09.913Z,15.83
2017-09-01T14:43:40.553Z,17.03
2017-09-01T14:46:11.094Z,23.37
2017-09-01T14:48:42.318Z,16.67
2017-09-01T14:51:13.627Z,28.60
2017-09-01T14:53:44.299Z,21.70
2017-09-01T14:56:15.264Z,21.40
2017-09-01T14:58:46.612Z,24.07
2017-09-01T15:01:18.020Z,16.60
2017-09-01T15:03:48.881Z,13.07
2017-09-01T15:06:19.779Z,15.37
2017-09-01T15:08:50.510Z,24.37
2017-09-01T15:11:21.078Z,28.80
2017-09-01T15:13:51.742Z,18.30
2017-09-01T15:16:22.342Z,15.13
2017-09-01T15:18:53.333Z,17.07
2017-09-01T15:21:24.239Z,12.63
2017-09-01T15:23:57.817Z,17.97
2017-09-01T15:26:28.710Z,18.57
2017-09-01T15:28:59.418Z,20.33
2017-09-01T15:31:31.013Z,18.90
2017-09-01T15:34:01.734Z,17.10
2017-09-01T15:36:32.626Z,13.73
2017-09-01T15:39:03.207Z,30.83
2017-09-01T15:41:33.674Z,21.90
2017-09-01T15:44:04.258Z,19.20
2017-09-01T15:46:35.285Z,24.53
2017-09-01T15:49:05.944Z,10.90
2017-09-01T15:51:37.063Z,15.97
2017-09-01T15:54:09.034Z,19.70
2017-09-01T15:56:39.587Z,17.70
2017-09-01T15:59:10.401Z,16.03
2017-09-01T16:01:42.443Z,15.47
2017-09-01T16:04:12.983Z,23.47
2017-09-01T16:06:43.922Z,16.60
2017-09-01T16:09:16.368Z,19.23
2017-09-01T16:11:47.641Z,24.57
2017-09-01T16:14:19.096Z,24.27
2017-09-01T16:16:49.656Z,21.10
2017-09-01T16:19:20.427Z,16.50
2017-09-01T16:21:59.076Z,10.30
2017-09-01T16:24:33.697Z,20.03
2017-09-01T16:27:05.519Z,24.53
2017-09-01T16:29:37.001Z,24.80
2017-09-01T16:32:07.618Z,19.00
2017-09-01T16:34:38.394Z,17.30
2017-09-01T16:37:09.960Z,14.80
2017-09-01T16:39:40.442Z,21.47
2017-09-01T16:42:11.166Z,11.97
2017-09-01T16:44:42.622Z,18.63
2017-09-01T16:47:13.445Z,23.47
2017-09-01T16:49:44.034Z,28.80
2017-09-01T16:52:14.854Z,30.13
2017-09-01T16:54:46.569Z,22.60
2017-09-01T16:57:17.374Z,30.10
2017-09-01T16:59:48.138Z,32.57
2017-09-01T17:02:18.971Z,27.40
2017-09-01T17:04:49.563Z,26.60
2017-09-01T17:07:27.725Z,36.63
2017-09-01T17:10:00.232Z,30.30
2017-09-01T17:12:31.057Z,30.40
2017-09-01T17:15:01.683Z,29.43
2017-09-01T17:17:33.324Z,31.37
2017-09-01T17:20:04.392Z,28.23
2017-09-01T17:22:35.538Z,21.30
2017-09-01T17:25:07.242Z,27.50
2017-09-01T17:27:38.977Z,38.10
2017-09-01T17:30:09.807Z,35.73
2017-09-01T17:32:40.426Z,33.13
2017-09-01T17:35:11.377Z,32.23
2017-09-01T17:37:42.359Z,31.33
2017-09-01T17:40:13.205Z,36.00
2017-09-01T17:42:43.881Z,32.57
2017-09-01T17:45:15.402Z,19.13
2017-09-01T17:47:48.447Z,35.40
2017-09-01T17:50:23.276Z,31.80
2017-09-01T17:52:59.859Z,33.63
2017-09-01T17:55:54.553Z,38.00
2017-09-01T17:58:33.119Z,36.40
2017-09-01T18:01:07.011Z,32.27
2017-09-01T18:03:38.479Z,31.37
2017-09-01T18:06:09.118Z,28.70
2017-09-01T18:08:39.712Z,29.47
2017-09-01T18:11:10.236Z,29.70
2017-09-01T18:13:41.818Z,29.47
2017-09-01T18:16:12.721Z,26.50
2017-09-01T18:18:44.149Z,21.23
2017-09-01T18:21:15.927Z,28.10
2017-09-01T18:23:46.744Z,19.37
2017-09-01T18:26:18.497Z,16.53
2017-09-01T18:28:52.240Z,23.90
2017-09-01T18:31:23.766Z,14.73
2017-09-01T18:33:55.532Z,9.67
2017-09-01T18:36:30.804Z,17.17
2017-09-01T18:39:02.464Z,17.70
2017-09-01T18:41:33.043Z,15.03
2017-09-01T18:44:04.869Z,25.00
2017-09-01T18:46:36.342Z,16.63
2017-09-01T18:49:12.874Z,19.07
2017-09-01T18:51:43.641Z,18.80
2017-09-01T18:54:14.457Z,14.23
2017-09-01T18:56:45.398Z,13.07
2017-09-01T18:59:16.030Z,17.60
2017-09-01T19:01:46.541Z,18.90
2017-09-01T19:04:18.541Z,20.10
2017-09-01T19:06:51.370Z,21.43
2017-09-01T19:09:22.389Z,20.23
2017-09-01T19:11:52.938Z,22.93
2017-09-01T19:14:23.682Z,11.77
2017-09-01T19:16:54.314Z,13.10
2017-09-01T19:19:25.028Z,21.93
2017-09-01T19:21:56.606Z,16.47
2017-09-01T19:24:27.080Z,16.10
2017-09-01T19:26:57.781Z,15.40
2017-09-01T19:29:34.159Z,30.10
2017-09-01T19:32:13.615Z,21.80
2017-09-01T19:34:44.655Z,28.17
2017-09-01T19:37:15.536Z,21.33
2017-09-01T19:39:46.636Z,28.93
2017-09-01T19:42:17.403Z,19.97
2017-09-01T19:44:49.403Z,27.90
2017-09-01T19:47:20.375Z,15.00
2017-09-01T19:49:51.389Z,20.20
2017-09-01T19:52:21.911Z,29.23
2017-09-01T19:54:53.213Z,11.17
2017-09-01T19:57:23.765Z,23.67
2017-09-01T19:59:54.331Z,19.63
2017-09-01T20:02:25.278Z,19.50
2017-09-01T20:04:56.526Z,11.67
2017-09-01T20:07:27.379Z,25.63
2017-09-01T20:09:58.676Z,13.70
2017-09-01T20:12:30.651Z,19.07
2017-09-01T20:15:01.345Z,12.97
2017-09-01T20:17:32.051Z,15.60
2017-09-01T20:20:03.291Z,13.30
2017-09-01T20:22:34.206Z,12.93
2017-09-01T20:25:10.564Z,16.33
2017-09-01T20:27:41.296Z,14.50
2017-09-01T20:30:11.817Z,18.53
2017-09-01T20:32:44.296Z,16.17
2017-09-01T20:35:15.318Z,16.43
2017-09-01T20:37:47.856Z,15.57
2017-09-01T20:40:18.473Z,16.10
2017-09-01T20:42:49.800Z,18.93
2017-09-01T20:45:21.364Z,15.10
2017-09-01T20:47:53.045Z,15.93
2017-09-01T20:50:24.751Z,19.57
2017-09-01T20:52:55.497Z,14.57
2017-09-01T20:55:28.305Z,17.60
2017-09-01T20:57:59.471Z,26.70
2017-09-01T21:00:30.282Z,19.40
2017-09-01T21:03:01.935Z,13.63
2017-09-01T21:05:34.414Z,17.73
2017-09-01T21:08:07.122Z,11.60
2017-09-01T21:10:39.309Z,13.47
2017-09-01T21:13:10.094Z,15.70
2017-09-01T21:15:42.593Z,12.70
2017-09-01T21:18:13.339Z,12.97
2017-09-01T21:20:46.272Z,10.97
2017-09-01T21:23:17.076Z,11.10
2017-09-01T21:25:48.163Z,16.97
2017-09-01T21:28:19.049Z,11.13
2017-09-01T21:30:50.670Z,16.10
2017-09-01T21:33:21.308Z,17.97
2017-09-01T21:35:52.407Z,20.37
2017-09-01T21:38:23.273Z,15.43
2017-09-01T21:40:54.404Z,10.83
2017-09-01T21:43:25.761Z,16.63
2017-09-01T21:45:58.031Z,13.67
2017-09-01T21:48:29.633Z,14.17
2017-09-01T21:51:06.541Z,10.63
2017-09-01T21:53:38.162Z,13.73
2017-09-01T21:56:09.779Z,14.00
2017-09-01T21:58:40.685Z,12.23
2017-09-01T22:01:20.804Z,13.20
2017-09-01T22:03:51.442Z,15.00
2017-09-01T22:06:23.667Z,11.73
2017-09-01T22:08:55.381Z,10.33
2017-09-01T22:11:26.476Z,11.10
2017-09-01T22:13:57.755Z,9.00
2017-09-01T22:16:28.311Z,7.23
2017-09-01T22:18:59.909Z,7.70
2017-09-01T22:21:31.383Z,11.03
2017-09-01T22:24:02.196Z,8.90
2017-09-01T22:26:34.142Z,7.57
2017-09-01T22:29:04.986Z,10.87
2017-09-01T22:31:36.232Z,13.70
2017-09-01T22:34:07.604Z,10.10
2017-09-01T22:36:40.466Z,9.20
2017-09-01T22:39:11.222Z,11.47
2017-09-01T22:41:42.065Z,11.40
2017-09-01T22:44:13.073Z,11.80
2017-09-01T22:46:43.662Z,9.47
2017-09-01T22:49:14.548Z,9.00
2017-09-01T22:51:45.686Z,9.50
2017-09-01T22:54:25.142Z,13.20
2017-09-01T22:56:56.538Z,9.57
2017-09-01T22:59:28.538Z,10.53
2017-09-01T23:02:00.297Z,10.93
2017-09-01T23:04:31.584Z,8.67
2017-09-01T23:07:02.598Z,9.70
2017-09-01T23:09:33.556Z,12.60
2017-09-01T23:12:04.297Z,9.03
2017-09-01T23:14:35.466Z,10.70
2017-09-01T23:17:06.396Z,12.50
2017-09-01T23:19:36.762Z,11.37
2017-09-01T23:22:07.406Z,14.43
2017-09-01T23:24:38.534Z,10.10
2017-09-01T23:27:09.169Z,11.33
2017-09-01T23:29:40.198Z,6.90
2017-09-01T23:32:10.821Z,11.17
2017-09-01T23:34:41.538Z,9.40
2017-09-01T23:37:12.635Z,11.57
2017-09-01T23:39:43.802Z,9.03
2017-09-01T23:42:14.851Z,11.10
2017-09-01T23:44:45.269Z,13.30
2017-09-01T23:47:16.478Z,11.57
2017-09-01T23:49:47.170Z,10.77
2017-09-01T23:52:17.980Z,10.07
2017-09-01T23:54:48.849Z,10.13
2017-09-01T23:57:19.753Z,10.40
2017-09-01T23:59:50.251Z,8.93
